sensor_id;sensor_type;location;lat;lon;timestamp;pressure;altitude;pressure_sealevel;temperature;humidity
21547;BME280;41275;51.912;4.388;2022-12-07T00:03:22;101894.81;;;11.46;55.57
21547;BME280;41275;51.912;4.388;2022-12-07T00:08:44;101899.50;;;11.30;55.57
21547;BME280;41275;51.912;4.388;2022-12-07T00:14:08;101892.19;;;11.33;55.85
21547;BME280;41275;51.912;4.388;2022-12-07T00:19:30;101876.06;;;11.41;55.87
21547;BME280;41275;51.912;4.388;2022-12-07T00:24:52;101866.06;;;11.43;55.49
21547;BME280;41275;51.912;4.388;2022-12-07T00:30:13;101871.41;;;11.29;55.67
21547;BME280;41275;51.912;4.388;2022-12-07T00:35:34;101876.50;;;11.24;56.12
21547;BME280;41275;51.912;4.388;2022-12-07T00:41:00;101860.59;;;11.11;55.54
21547;BME280;41275;51.912;4.388;2022-12-07T00:52:34;101862.66;;;10.89;55.51
21547;BME280;41275;51.912;4.388;2022-12-07T00:57:55;101859.97;;;10.76;55.48
21547;BME280;41275;51.912;4.388;2022-12-07T01:03:17;101864.66;;;10.74;55.80
21547;BME280;41275;51.912;4.388;2022-12-07T01:08:38;101865.03;;;10.64;56.05
21547;BME280;41275;51.912;4.388;2022-12-07T01:14:00;101863.63;;;10.62;55.65
21547;BME280;41275;51.912;4.388;2022-12-07T01:19:21;101865.03;;;10.57;56.20
21547;BME280;41275;51.912;4.388;2022-12-07T01:24:43;101854.81;;;10.48;55.91
21547;BME280;41275;51.912;4.388;2022-12-07T01:30:05;101856.63;;;10.41;55.87
21547;BME280;41275;51.912;4.388;2022-12-07T01:35:46;101856.22;;;10.37;55.88
21547;BME280;41275;51.912;4.388;2022-12-07T01:41:08;101855.44;;;10.43;56.13
21547;BME280;41275;51.912;4.388;2022-12-07T01:46:29;101864.44;;;10.62;56.28
21547;BME280;41275;51.912;4.388;2022-12-07T01:51:52;101862.63;;;10.96;56.06
21547;BME280;41275;51.912;4.388;2022-12-07T01:57:16;101867.31;;;11.07;55.62
21547;BME280;41275;51.912;4.388;2022-12-07T02:02:44;101860.38;;;10.99;55.51
21547;BME280;41275;51.912;4.388;2022-12-07T02:08:09;101866.72;;;11.05;55.61
21547;BME280;41275;51.912;4.388;2022-12-07T02:13:33;101850.81;;;11.12;55.85
21547;BME280;41275;51.912;4.388;2022-12-07T02:19:32;101847.56;;;11.10;55.57
21547;BME280;41275;51.912;4.388;2022-12-07T02:25:11;101845.50;;;10.92;55.31
21547;BME280;41275;51.912;4.388;2022-12-07T02:30:40;101844.06;;;10.76;55.55
21547;BME280;41275;51.912;4.388;2022-12-07T02:36:10;101841.44;;;10.63;55.57
21547;BME280;41275;51.912;4.388;2022-12-07T02:41:39;101832.63;;;10.49;55.25
21547;BME280;41275;51.912;4.388;2022-12-07T02:47:06;101835.88;;;10.38;55.40
21547;BME280;41275;51.912;4.388;2022-12-07T02:52:30;101841.16;;;10.31;55.56
21547;BME280;41275;51.912;4.388;2022-12-07T03:03:34;101846.06;;;10.34;55.04
21547;BME280;41275;51.912;4.388;2022-12-07T03:20:41;101850.59;;;10.80;54.72
21547;BME280;41275;51.912;4.388;2022-12-07T03:26:06;101840.84;;;10.74;55.08
21547;BME280;41275;51.912;4.388;2022-12-07T03:31:33;101840.03;;;10.87;54.94
21547;BME280;41275;51.912;4.388;2022-12-07T03:37:04;101829.41;;;10.80;54.84
21547;BME280;41275;51.912;4.388;2022-12-07T03:42:29;101837.16;;;10.81;54.62
21547;BME280;41275;51.912;4.388;2022-12-07T03:47:59;101837.97;;;10.95;54.84
21547;BME280;41275;51.912;4.388;2022-12-07T03:53:35;101839.59;;;11.03;54.64
21547;BME280;41275;51.912;4.388;2022-12-07T03:58:58;101837.97;;;11.22;54.56
21547;BME280;41275;51.912;4.388;2022-12-07T04:04:19;101827.38;;;11.15;54.39
21547;BME280;41275;51.912;4.388;2022-12-07T04:09:40;101823.31;;;11.06;54.89
21547;BME280;41275;51.912;4.388;2022-12-07T04:15:02;101820.47;;;11.01;54.57
21547;BME280;41275;51.912;4.388;2022-12-07T04:20:24;101818.84;;;10.87;54.70
21547;BME280;41275;51.912;4.388;2022-12-07T04:25:48;101823.31;;;10.73;54.84
21547;BME280;41275;51.912;4.388;2022-12-07T04:31:09;101813.50;;;10.34;55.32
21547;BME280;41275;51.912;4.388;2022-12-07T04:36:31;101818.59;;;10.48;54.50
21547;BME280;41275;51.912;4.388;2022-12-07T04:41:53;101807.38;;;10.40;54.47
21547;BME280;41275;51.912;4.388;2022-12-07T04:47:14;101802.69;;;10.28;54.93
21547;BME280;41275;51.912;4.388;2022-12-07T04:52:35;101795.75;;;10.27;54.75
21547;BME280;41275;51.912;4.388;2022-12-07T04:57:57;101781.31;;;10.30;54.94
21547;BME280;41275;51.912;4.388;2022-12-07T05:03:18;101783.13;;;10.29;54.72
21547;BME280;41275;51.912;4.388;2022-12-07T05:08:40;101775.13;;;10.09;54.55
21547;BME280;41275;51.912;4.388;2022-12-07T05:14:02;101791.41;;;10.06;54.56
21547;BME280;41275;51.912;4.388;2022-12-07T05:19:24;101777.56;;;10.04;55.00
21547;BME280;41275;51.912;4.388;2022-12-07T05:24:45;101780.47;;;10.23;54.78
21547;BME280;41275;51.912;4.388;2022-12-07T05:30:06;101783.56;;;10.33;54.49
21547;BME280;41275;51.912;4.388;2022-12-07T05:35:28;101784.56;;;10.25;54.06
21547;BME280;41275;51.912;4.388;2022-12-07T05:40:49;101791.84;;;10.23;54.56
21547;BME280;41275;51.912;4.388;2022-12-07T05:46:10;101784.56;;;10.25;54.34
21547;BME280;41275;51.912;4.388;2022-12-07T05:51:47;101779.91;;;10.47;54.60
21547;BME280;41275;51.912;4.388;2022-12-07T05:57:11;101786.25;;;10.66;54.28
21547;BME280;41275;51.912;4.388;2022-12-07T06:02:32;101787.25;;;10.78;54.07
21547;BME280;41275;51.912;4.388;2022-12-07T06:07:53;101787.06;;;10.87;54.17
21547;BME280;41275;51.912;4.388;2022-12-07T06:13:17;101793.56;;;11.04;53.78
21547;BME280;41275;51.912;4.388;2022-12-07T06:18:41;101782.38;;;11.02;53.51
21547;BME280;41275;51.912;4.388;2022-12-07T06:24:02;101780.56;;;10.89;53.92
21547;BME280;41275;51.912;4.388;2022-12-07T06:29:24;101783.16;;;10.96;54.21
21547;BME280;41275;51.912;4.388;2022-12-07T06:34:45;101793.78;;;11.09;53.84
21547;BME280;41275;51.912;4.388;2022-12-07T06:40:08;101789.91;;;10.98;53.85
21547;BME280;41275;51.912;4.388;2022-12-07T06:45:29;101791.53;;;10.79;54.24
21547;BME280;41275;51.912;4.388;2022-12-07T06:50:51;101784.41;;;10.67;54.01
21547;BME280;41275;51.912;4.388;2022-12-07T06:56:12;101789.91;;;10.65;53.61
21547;BME280;41275;51.912;4.388;2022-12-07T07:01:34;101786.22;;;10.60;54.04
21547;BME280;41275;51.912;4.388;2022-12-07T07:06:56;101787.69;;;10.62;53.70
21547;BME280;41275;51.912;4.388;2022-12-07T07:12:17;101792.97;;;10.62;53.67
21547;BME280;41275;51.912;4.388;2022-12-07T07:17:38;101796.84;;;10.73;53.60
21547;BME280;41275;51.912;4.388;2022-12-07T07:22:59;101800.69;;;11.03;53.15
21547;BME280;41275;51.912;4.388;2022-12-07T07:28:21;101799.66;;;11.18;53.21
21547;BME280;41275;51.912;4.388;2022-12-07T07:33:42;101789.06;;;11.11;52.77
21547;BME280;41275;51.912;4.388;2022-12-07T07:39:03;101800.69;;;11.03;52.79
21547;BME280;41275;51.912;4.388;2022-12-07T07:44:24;101796.81;;;11.06;53.00
21547;BME280;41275;51.912;4.388;2022-12-07T07:49:45;101794.13;;;11.33;52.88
21547;BME280;41275;51.912;4.388;2022-12-07T07:55:07;101797.31;;;11.61;52.12
21547;BME280;41275;51.912;4.388;2022-12-07T08:00:31;101809.06;;;11.78;51.95
21547;BME280;41275;51.912;4.388;2022-12-07T08:05:52;101807.63;;;11.83;51.55
21547;BME280;41275;51.912;4.388;2022-12-07T08:11:13;101808.53;;;11.63;51.99
21547;BME280;41275;51.912;4.388;2022-12-07T08:16:35;101820.38;;;11.54;52.02
21547;BME280;41275;51.912;4.388;2022-12-07T08:21:56;101810.38;;;11.56;52.27
21547;BME280;41275;51.912;4.388;2022-12-07T08:27:17;101808.72;;;11.62;52.36
21547;BME280;41275;51.912;4.388;2022-12-07T08:32:38;101819.69;;;11.92;52.08
21547;BME280;41275;51.912;4.388;2022-12-07T08:38:00;101807.94;;;12.13;51.81
21547;BME280;41275;51.912;4.388;2022-12-07T08:43:23;101815.81;;;12.26;51.85
21547;BME280;41275;51.912;4.388;2022-12-07T08:48:47;101818.94;;;12.48;51.34
21547;BME280;41275;51.912;4.388;2022-12-07T08:54:14;101827.69;;;12.55;51.59
21547;BME280;41275;51.912;4.388;2022-12-07T08:59:36;101818.16;;;12.47;51.05
21547;BME280;41275;51.912;4.388;2022-12-07T09:04:58;101806.84;;;12.27;51.52
21547;BME280;41275;51.912;4.388;2022-12-07T09:10:19;101808.31;;;12.23;51.57
21547;BME280;41275;51.912;4.388;2022-12-07T09:15:40;101806.28;;;12.18;51.56
21547;BME280;41275;51.912;4.388;2022-12-07T09:21:01;101818.66;;;12.31;51.79
21547;BME280;41275;51.912;4.388;2022-12-07T09:26:22;101809.41;;;12.40;51.27
21547;BME280;41275;51.912;4.388;2022-12-07T09:31:44;101810.88;;;12.29;51.11
21547;BME280;41275;51.912;4.388;2022-12-07T09:37:05;101804.47;;;12.12;51.04
21547;BME280;41275;51.912;4.388;2022-12-07T09:42:39;101804.97;;;11.96;51.23
21547;BME280;41275;51.912;4.388;2022-12-07T09:48:03;101807.63;;;11.96;51.50
21547;BME280;41275;51.912;4.388;2022-12-07T09:53:33;101810.59;;;12.13;51.58
21547;BME280;41275;51.912;4.388;2022-12-07T09:58:59;101803.00;;;12.23;51.69
21547;BME280;41275;51.912;4.388;2022-12-07T10:04:26;101799.84;;;12.33;51.79
21547;BME280;41275;51.912;4.388;2022-12-07T10:09:47;101802.00;;;12.49;51.80
21547;BME280;41275;51.912;4.388;2022-12-07T10:15:09;101796.09;;;12.72;51.64
21547;BME280;41275;51.912;4.388;2022-12-07T10:20:30;101783.13;;;13.07;51.70
21547;BME280;41275;51.912;4.388;2022-12-07T10:25:52;101790.22;;;13.38;51.10
21547;BME280;41275;51.912;4.388;2022-12-07T10:31:17;101783.56;;;13.47;51.04
21547;BME280;41275;51.912;4.388;2022-12-07T10:36:39;101770.63;;;13.51;50.82
21547;BME280;41275;51.912;4.388;2022-12-07T10:42:02;101765.53;;;13.68;50.28
21547;BME280;41275;51.912;4.388;2022-12-07T10:47:34;101766.00;;;14.07;49.93
21547;BME280;41275;51.912;4.388;2022-12-07T10:59:17;101755.06;;;14.68;48.48
21547;BME280;41275;51.912;4.388;2022-12-07T11:04:58;101755.66;;;14.70;47.27
21547;BME280;41275;51.912;4.388;2022-12-07T11:10:29;101746.53;;;14.78;46.52
21547;BME280;41275;51.912;4.388;2022-12-07T11:16:07;101736.31;;;14.87;45.80
21547;BME280;41275;51.912;4.388;2022-12-07T11:27:35;101716.25;;;14.84;44.46
21547;BME280;41275;51.912;4.388;2022-12-07T11:33:16;101711.69;;;15.20;43.84
21547;BME280;41275;51.912;4.388;2022-12-07T11:38:47;101715.41;;;15.59;43.74
21547;BME280;41275;51.912;4.388;2022-12-07T11:44:25;101724.94;;;14.03;43.71
21547;BME280;41275;51.912;4.388;2022-12-07T11:55:57;101721.41;;;12.87;48.35
21547;BME280;41275;51.912;4.388;2022-12-07T12:01:28;101706.13;;;12.82;49.44
21547;BME280;41275;51.912;4.388;2022-12-07T12:06:51;101709.78;;;12.63;49.70
21547;BME280;41275;51.912;4.388;2022-12-07T12:12:27;101702.25;;;12.60;50.01
21547;BME280;41275;51.912;4.388;2022-12-07T12:18:21;101695.41;;;12.89;50.68
21547;BME280;41275;51.912;4.388;2022-12-07T12:24:14;101690.84;;;12.96;50.57
21547;BME280;41275;51.912;4.388;2022-12-07T12:29:41;101691.25;;;13.36;51.18
21547;BME280;41275;51.912;4.388;2022-12-07T12:40:46;101682.53;;;14.43;50.62
21547;BME280;41275;51.912;4.388;2022-12-07T12:51:55;101671.06;;;16.15;46.47
21547;BME280;41275;51.912;4.388;2022-12-07T12:57:19;101663.47;;;16.07;45.72
21547;BME280;41275;51.912;4.388;2022-12-07T13:02:52;101656.41;;;15.84;44.44
21547;BME280;41275;51.912;4.388;2022-12-07T13:08:18;101646.72;;;15.09;43.77
21547;BME280;41275;51.912;4.388;2022-12-07T13:13:42;101653.94;;;14.50;45.07
21547;BME280;41275;51.912;4.388;2022-12-07T13:19:46;101639.78;;;13.61;46.82
21547;BME280;41275;51.912;4.388;2022-12-07T13:36:33;101619.69;;;12.43;49.26
21547;BME280;41275;51.912;4.388;2022-12-07T13:41:58;101608.56;;;12.34;49.57
21547;BME280;41275;51.912;4.388;2022-12-07T13:47:39;101590.41;;;12.31;49.13
21547;BME280;41275;51.912;4.388;2022-12-07T13:53:12;101587.47;;;13.43;49.73
21547;BME280;41275;51.912;4.388;2022-12-07T13:58:34;101589.88;;;15.09;48.32
21547;BME280;41275;51.912;4.388;2022-12-07T14:04:16;101582.47;;;15.68;45.62
21547;BME280;41275;51.912;4.388;2022-12-07T14:09:36;101586.06;;;14.76;44.02
21547;BME280;41275;51.912;4.388;2022-12-07T14:14:59;101582.06;;;14.03;44.58
21547;BME280;41275;51.912;4.388;2022-12-07T14:20:33;101591.16;;;13.72;44.99
21547;BME280;41275;51.912;4.388;2022-12-07T14:26:10;101595.28;;;13.56;45.74
21547;BME280;41275;51.912;4.388;2022-12-07T14:31:32;101574.34;;;12.81;46.70
21547;BME280;41275;51.912;4.388;2022-12-07T14:36:53;101567.47;;;12.37;47.73
21547;BME280;41275;51.912;4.388;2022-12-07T14:42:14;101568.94;;;12.33;48.53
21547;BME280;41275;51.912;4.388;2022-12-07T14:47:35;101563.25;;;12.29;48.92
21547;BME280;41275;51.912;4.388;2022-12-07T14:53:03;101556.84;;;12.18;48.95
21547;BME280;41275;51.912;4.388;2022-12-07T14:58:27;101549.50;;;11.95;49.79
21547;BME280;41275;51.912;4.388;2022-12-07T15:03:48;101546.84;;;11.95;50.24
21547;BME280;41275;51.912;4.388;2022-12-07T15:09:10;101543.16;;;11.96;50.51
21547;BME280;41275;51.912;4.388;2022-12-07T15:14:32;101531.75;;;11.96;50.96
21547;BME280;41275;51.912;4.388;2022-12-07T15:19:53;101536.28;;;11.89;50.79
21547;BME280;41275;51.912;4.388;2022-12-07T15:25:14;101526.28;;;11.91;51.04
21547;BME280;41275;51.912;4.388;2022-12-07T15:30:39;101522.75;;;11.97;51.45
21547;BME280;41275;51.912;4.388;2022-12-07T15:36:01;101509.56;;;12.09;51.15
21547;BME280;41275;51.912;4.388;2022-12-07T15:41:23;101523.31;;;12.24;51.06
21547;BME280;41275;51.912;4.388;2022-12-07T15:46:44;101515.91;;;12.08;51.21
21547;BME280;41275;51.912;4.388;2022-12-07T15:52:05;101506.97;;;12.02;51.29
21547;BME280;41275;51.912;4.388;2022-12-07T15:57:27;101510.97;;;11.93;51.55
21547;BME280;41275;51.912;4.388;2022-12-07T16:02:48;101499.31;;;11.94;51.23
21547;BME280;41275;51.912;4.388;2022-12-07T16:08:09;101500.44;;;12.04;51.05
21547;BME280;41275;51.912;4.388;2022-12-07T16:13:30;101498.97;;;12.09;50.32
21547;BME280;41275;51.912;4.388;2022-12-07T16:18:51;101497.50;;;12.13;50.13
21547;BME280;41275;51.912;4.388;2022-12-07T16:24:12;101510.75;;;12.13;49.41
21547;BME280;41275;51.912;4.388;2022-12-07T16:29:36;101514.22;;;12.13;48.60
21547;BME280;41275;51.912;4.388;2022-12-07T16:34:57;101500.22;;;12.06;48.20
21547;BME280;41275;51.912;4.388;2022-12-07T16:40:18;101477.09;;;11.95;48.83
21547;BME280;41275;51.912;4.388;2022-12-07T16:45:39;101480.53;;;11.95;49.21
21547;BME280;41275;51.912;4.388;2022-12-07T16:51:07;101484.72;;;11.85;49.46
21547;BME280;41275;51.912;4.388;2022-12-07T16:56:29;101476.34;;;11.81;50.10
21547;BME280;41275;51.912;4.388;2022-12-07T17:01:50;101463.72;;;11.83;50.33
21547;BME280;41275;51.912;4.388;2022-12-07T17:07:12;101456.13;;;11.87;50.46
21547;BME280;41275;51.912;4.388;2022-12-07T17:12:33;101434.72;;;11.82;50.67
21547;BME280;41275;51.912;4.388;2022-12-07T17:17:58;101446.88;;;11.96;50.57
21547;BME280;41275;51.912;4.388;2022-12-07T17:23:19;101452.03;;;12.09;50.45
21547;BME280;41275;51.912;4.388;2022-12-07T17:28:41;101452.91;;;12.03;50.44
21547;BME280;41275;51.912;4.388;2022-12-07T17:34:02;101437.34;;;11.88;50.46
21547;BME280;41275;51.912;4.388;2022-12-07T17:39:24;101424.28;;;11.87;50.57
21547;BME280;41275;51.912;4.388;2022-12-07T17:44:45;101422.00;;;11.90;50.33
21547;BME280;41275;51.912;4.388;2022-12-07T17:50:07;101426.81;;;12.00;50.27
21547;BME280;41275;51.912;4.388;2022-12-07T17:55:28;101423.75;;;12.03;49.96
21547;BME280;41275;51.912;4.388;2022-12-07T18:00:50;101426.81;;;12.00;49.44
21547;BME280;41275;51.912;4.388;2022-12-07T18:06:11;101430.66;;;12.04;49.73
21547;BME280;41275;51.912;4.388;2022-12-07T18:11:32;101429.63;;;12.05;49.22
21547;BME280;41275;51.912;4.388;2022-12-07T18:16:54;101422.41;;;12.12;48.62
21547;BME280;41275;51.912;4.388;2022-12-07T18:22:15;101399.69;;;11.79;49.20
21547;BME280;41275;51.912;4.388;2022-12-07T18:27:36;101406.88;;;11.72;49.43
21547;BME280;41275;51.912;4.388;2022-12-07T18:32:57;101397.75;;;11.68;49.37
21547;BME280;41275;51.912;4.388;2022-12-07T18:38:19;101389.47;;;11.83;49.53
21547;BME280;41275;51.912;4.388;2022-12-07T18:43:41;101381.66;;;11.88;49.08
21547;BME280;41275;51.912;4.388;2022-12-07T18:49:03;101389.69;;;12.00;49.63
21547;BME280;41275;51.912;4.388;2022-12-07T18:54:26;101386.72;;;12.08;49.74
21547;BME280;41275;51.912;4.388;2022-12-07T18:59:47;101393.06;;;12.07;49.63
21547;BME280;41275;51.912;4.388;2022-12-07T19:05:09;101396.31;;;12.27;49.51
21547;BME280;41275;51.912;4.388;2022-12-07T19:10:30;101389.59;;;12.25;49.92
21547;BME280;41275;51.912;4.388;2022-12-07T19:15:52;101383.53;;;12.36;49.47
21547;BME280;41275;51.912;4.388;2022-12-07T19:21:13;101391.13;;;12.33;49.51
21547;BME280;41275;51.912;4.388;2022-12-07T19:26:37;101369.56;;;12.41;49.49
21547;BME280;41275;51.912;4.388;2022-12-07T19:31:59;101369.13;;;12.44;49.30
21547;BME280;41275;51.912;4.388;2022-12-07T19:37:21;101357.72;;;12.43;49.70
21547;BME280;41275;51.912;4.388;2022-12-07T19:42:42;101370.94;;;12.32;50.05
21547;BME280;41275;51.912;4.388;2022-12-07T19:48:03;101393.22;;;12.12;50.56
21547;BME280;41275;51.912;4.388;2022-12-07T19:53:25;101381.16;;;11.54;50.64
21547;BME280;41275;51.912;4.388;2022-12-07T19:58:54;101351.06;;;10.99;51.12
21547;BME280;41275;51.912;4.388;2022-12-07T20:04:18;101342.22;;;10.87;50.92
21547;BME280;41275;51.912;4.388;2022-12-07T20:09:42;101341.78;;;10.90;50.34
21547;BME280;41275;51.912;4.388;2022-12-07T20:15:04;101346.00;;;10.97;50.48
21547;BME280;41275;51.912;4.388;2022-12-07T20:20:28;101343.94;;;10.99;51.08
21547;BME280;41275;51.912;4.388;2022-12-07T20:25:50;101324.19;;;10.95;51.43
21547;BME280;41275;51.912;4.388;2022-12-07T20:31:14;101314.13;;;11.04;52.14
21547;BME280;41275;51.912;4.388;2022-12-07T20:36:36;101308.22;;;11.09;52.20
21547;BME280;41275;51.912;4.388;2022-12-07T20:41:57;101312.06;;;11.13;52.06
21547;BME280;41275;51.912;4.388;2022-12-07T20:47:37;101293.28;;;11.14;52.20
21547;BME280;41275;51.912;4.388;2022-12-07T20:52:58;101293.22;;;11.21;52.04
21547;BME280;41275;51.912;4.388;2022-12-07T20:58:19;101290.88;;;11.31;51.83
21547;BME280;41275;51.912;4.388;2022-12-07T21:03:43;101278.59;;;11.37;51.76
21547;BME280;41275;51.912;4.388;2022-12-07T21:09:04;101305.28;;;10.92;52.34
21547;BME280;41275;51.912;4.388;2022-12-07T21:14:26;101307.50;;;10.70;52.79
21547;BME280;41275;51.912;4.388;2022-12-07T21:19:47;101290.91;;;10.56;53.50
21547;BME280;41275;51.912;4.388;2022-12-07T21:25:08;101287.22;;;10.57;53.34
21547;BME280;41275;51.912;4.388;2022-12-07T21:30:29;101288.63;;;10.60;53.37
21547;BME280;41275;51.912;4.388;2022-12-07T21:35:51;101272.59;;;10.54;53.60
21547;BME280;41275;51.912;4.388;2022-12-07T21:41:21;101257.66;;;10.67;53.77
21547;BME280;41275;51.912;4.388;2022-12-07T21:46:43;101249.38;;;10.81;53.40
21547;BME280;41275;51.912;4.388;2022-12-07T21:53:08;101241.88;;;10.78;53.75
21547;BME280;41275;51.912;4.388;2022-12-07T21:58:30;101229.81;;;10.82;53.44
21547;BME280;41275;51.912;4.388;2022-12-07T22:03:52;101227.97;;;10.83;53.50
21547;BME280;41275;51.912;4.388;2022-12-07T22:09:14;101219.28;;;10.76;53.54
21547;BME280;41275;51.912;4.388;2022-12-07T22:14:35;101210.75;;;10.74;53.69
21547;BME280;41275;51.912;4.388;2022-12-07T22:20:16;101218.19;;;10.84;53.35
21547;BME280;41275;51.912;4.388;2022-12-07T22:25:38;101215.63;;;10.95;52.94
21547;BME280;41275;51.912;4.388;2022-12-07T22:31:07;101218.31;;;11.14;53.21
21547;BME280;41275;51.912;4.388;2022-12-07T22:36:29;101219.84;;;11.21;52.95
21547;BME280;41275;51.912;4.388;2022-12-07T22:41:50;101201.38;;;11.33;53.09
21547;BME280;41275;51.912;4.388;2022-12-07T22:47:19;101189.44;;;11.42;52.62
21547;BME280;41275;51.912;4.388;2022-12-07T22:52:40;101200.91;;;11.54;51.93
21547;BME280;41275;51.912;4.388;2022-12-07T22:58:04;101219.16;;;11.63;52.05
21547;BME280;41275;51.912;4.388;2022-12-07T23:03:25;101223.22;;;11.47;51.94
21547;BME280;41275;51.912;4.388;2022-12-07T23:08:46;101217.63;;;11.18;52.59
21547;BME280;41275;51.912;4.388;2022-12-07T23:14:11;101197.91;;;11.14;52.71
21547;BME280;41275;51.912;4.388;2022-12-07T23:19:32;101175.84;;;11.20;52.80
21547;BME280;41275;51.912;4.388;2022-12-07T23:24:54;101167.91;;;11.20;52.98
21547;BME280;41275;51.912;4.388;2022-12-07T23:30:15;101161.94;;;11.25;53.00
21547;BME280;41275;51.912;4.388;2022-12-07T23:35:36;101161.78;;;11.38;53.18
21547;BME280;41275;51.912;4.388;2022-12-07T23:40:57;101158.13;;;11.51;53.15
21547;BME280;41275;51.912;4.388;2022-12-07T23:46:21;101150.41;;;11.49;53.51
21547;BME280;41275;51.912;4.388;2022-12-07T23:51:43;101145.91;;;11.50;52.97
21547;BME280;41275;51.912;4.388;2022-12-07T23:57:04;101141.97;;;11.41;53.46
